Time;durP1;ratioP1;P1;durP2;ratioP2;P2;SDS_P1;SDS_P2;PMS_P1;PMS_P2;Temp;Humidity;BMP_temperature;BMP_pressure;BME280_temperature;BME280_humidity;BME280_pressure;Samples;Min_cycle;Max_cycle;Signal;HPM_P1;HPM_P2
2024/03/25 00:02:21;;;;;;;1999.90;999.90;;;;;;;4.52;100.00;100672.19;10502374;28;20044;-66
2024/03/25 00:07:23;;;;;;;1999.90;999.90;;;;;;;4.41;100.00;100671.72;10468788;28;20110;-66
2024/03/25 00:12:27;;;;;;;1999.90;999.90;;;;;;;4.46;100.00;100664.63;10501678;28;20049;-66
2024/03/25 00:17:28;;;;;;;1999.90;999.90;;;;;;;4.37;100.00;100670.09;10469148;28;20056;-66
2024/03/25 00:22:30;;;;;;;1999.90;999.90;;;;;;;4.44;100.00;100667.28;10485012;28;20052;-66
2024/03/25 00:27:31;;;;;;;1999.90;999.90;;;;;;;4.47;100.00;100653.34;10501573;28;20091;-66
2024/03/25 00:32:32;;;;;;;1999.90;999.90;;;;;;;4.31;100.00;100660.81;10501142;28;20079;-67
2024/03/25 00:37:34;;;;;;;1999.90;999.90;;;;;;;4.18;100.00;100655.16;10500873;28;20072;-67
2024/03/25 00:42:35;;;;;;;1999.90;999.90;;;;;;;4.23;100.00;100658.47;10500947;28;20048;-67
2024/03/25 00:47:37;;;;;;;1999.90;999.90;;;;;;;4.14;100.00;100655.34;10500815;28;20048;-67
2024/03/25 00:52:38;;;;;;;1999.90;999.90;;;;;;;4.27;100.00;100651.44;10483244;28;20059;-66
2024/03/25 00:57:39;;;;;;;1999.90;999.90;;;;;;;4.15;100.00;100647.50;10500768;28;20065;-67
2024/03/25 01:02:41;;;;;;;1999.90;999.90;;;;;;;4.11;100.00;100660.63;10483914;28;20052;-67
2024/03/25 01:07:43;;;;;;;1999.90;999.90;;;;;;;4.15;100.00;100660.44;10483281;28;20064;-67
2024/03/25 01:12:44;;;;;;;1999.90;999.90;;;;;;;3.90;100.00;100666.44;10482469;28;20044;-67
2024/03/25 01:17:46;;;;;;;1999.90;999.90;;;;;;;4.07;100.00;100665.06;10482569;28;20056;-67
2024/03/25 01:22:48;;;;;;;1999.90;999.90;;;;;;;4.08;100.00;100670.19;10499760;28;20052;-67
2024/03/25 01:27:49;;;;;;;1999.90;999.90;;;;;;;4.06;100.00;100674.56;10498355;28;20450;-67
2024/03/25 01:32:51;;;;;;;1999.90;999.90;;;;;;;4.20;100.00;100671.53;10498108;28;20428;-67
2024/03/25 01:37:53;;;;;;;1999.90;999.90;;;;;;;4.21;100.00;100678.41;10481750;28;20173;-67
2024/03/25 01:42:58;;;;;;;1999.90;999.90;;;;;;;4.28;100.00;100679.03;10481626;28;20071;-67
2024/03/25 01:48:06;;;;;;;1999.90;999.90;;;;;;;4.23;100.00;100673.16;10480961;28;20488;-67
2024/03/25 01:53:08;;;;;;;1999.90;999.90;;;;;;;4.12;100.00;100672.66;10481020;28;20102;-67
2024/03/25 01:58:09;;;;;;;1999.90;999.90;;;;;;;4.04;100.00;100678.09;10481250;28;20059;-67
2024/03/25 02:03:11;;;;;;;1999.90;999.90;;;;;;;4.04;100.00;100676.34;10480699;28;20052;-67
2024/03/25 02:08:13;;;;;;;1999.90;999.90;;;;;;;3.87;100.00;100676.06;10479840;28;20060;-67
2024/03/25 02:13:15;;;;;;;1999.90;999.90;;;;;;;3.76;100.00;100685.91;10463551;28;20053;-67
2024/03/25 02:18:17;;;;;;;1999.90;999.90;;;;;;;3.71;100.00;100692.03;10480634;28;20063;-67
2024/03/25 02:23:19;;;;;;;1999.90;999.90;;;;;;;3.90;100.00;100684.56;10480539;28;20051;-67
2024/03/25 02:28:21;;;;;;;1999.90;999.90;;;;;;;3.90;100.00;100678.53;10480231;28;20056;-67
2024/03/25 02:33:22;;;;;;;1999.90;999.90;;;;;;;3.74;100.00;100679.91;10479584;28;20048;-67
2024/03/25 02:38:24;;;;;;;1999.90;999.90;;;;;;;3.76;100.00;100685.91;10496633;28;20057;-67
2024/03/25 02:43:26;;;;;;;1999.90;999.90;;;;;;;3.79;100.00;100683.22;10479019;28;20052;-67
2024/03/25 02:48:27;;;;;;;1999.90;999.90;;;;;;;3.65;100.00;100692.25;10479962;28;20481;-67
2024/03/25 02:53:29;;;;;;;1999.90;999.90;;;;;;;3.57;100.00;100693.38;10502953;22;20048;-66
2024/03/25 02:58:30;;;;;;;1999.90;999.90;;;;;;;3.74;100.00;100691.13;10496169;28;20508;-66
2024/03/25 03:03:31;;;;;;;1999.90;999.90;;;;;;;3.59;100.00;100686.41;10495994;28;20489;-66
2024/03/25 03:08:33;;;;;;;1999.90;999.90;;;;;;;3.51;100.00;100676.28;10496247;28;20081;-66
2024/03/25 03:13:34;;;;;;;1999.90;999.90;;;;;;;3.34;100.00;100679.38;10495986;28;20516;-66
2024/03/25 03:18:37;;;;;;;1999.90;999.90;;;;;;;3.38;100.00;100670.63;10499755;28;20408;-66
2024/03/25 03:23:38;;;;;;;1999.90;999.90;;;;;;;3.35;100.00;100671.56;10487050;28;20048;-66
2024/03/25 03:28:43;;;;;;;1999.90;999.90;;;;;;;3.17;100.00;100678.09;10503751;28;20489;-66
2024/03/25 03:33:44;;;;;;;1999.90;999.90;;;;;;;3.32;100.00;100673.38;10503885;28;20064;-66
2024/03/25 03:38:46;;;;;;;1999.90;999.90;;;;;;;3.44;100.00;100669.59;10503987;28;20063;-67
2024/03/25 03:43:47;;;;;;;1999.90;999.90;;;;;;;3.42;100.00;100666.22;10485620;28;20049;-67
2024/03/25 03:48:49;;;;;;;1999.90;999.90;;;;;;;3.49;100.00;100671.13;10503215;28;20056;-67
2024/03/25 03:53:51;;;;;;;1999.90;999.90;;;;;;;3.37;100.00;100662.91;10502283;28;20057;-67
2024/03/25 03:58:52;;;;;;;1999.90;999.90;;;;;;;3.41;100.00;100664.50;10486041;28;20059;-67
2024/03/25 04:03:53;;;;;;;1999.90;999.90;;;;;;;3.28;100.00;100661.44;10469172;28;20053;-67
2024/03/25 04:08:55;;;;;;;1999.90;999.90;;;;;;;3.22;100.00;100652.09;10502295;28;20150;-67
2024/03/25 04:13:56;;;;;;;1999.90;999.90;;;;;;;3.22;100.00;100654.69;10485124;28;20481;-67
2024/03/25 04:18:58;;;;;;;1999.90;999.90;;;;;;;3.37;100.00;100674.09;10484273;28;20497;-66
2024/03/25 04:23:59;;;;;;;1999.90;999.90;;;;;;;3.24;100.00;100671.00;10501918;28;20049;-66
2024/03/25 04:29:00;;;;;;;1999.90;999.90;;;;;;;3.53;100.00;100666.72;10501174;28;20060;-66
2024/03/25 04:34:02;;;;;;;1999.90;999.90;;;;;;;3.41;100.00;100654.16;10500735;28;20049;-66
2024/03/25 04:39:03;;;;;;;1999.90;999.90;;;;;;;3.63;100.00;100662.13;10501288;28;20052;-66
2024/03/25 04:44:05;;;;;;;1999.90;999.90;;;;;;;3.66;100.00;100662.84;10484064;28;20049;-66
2024/03/25 04:49:06;;;;;;;1999.90;999.90;;;;;;;3.69;100.00;100660.19;10484621;28;20059;-66
2024/03/25 04:54:07;;;;;;;1999.90;999.90;;;;;;;3.52;100.00;100662.44;10483886;28;20057;-66
2024/03/25 04:59:09;;;;;;;1999.90;999.90;;;;;;;3.54;100.00;100669.25;10499856;28;20052;-67
2024/03/25 05:04:10;;;;;;;1999.90;999.90;;;;;;;3.34;100.00;100664.69;10483705;28;20049;-67
2024/03/25 05:09:12;;;;;;;1999.90;999.90;;;;;;;3.29;100.00;100666.56;10499550;28;20409;-67
2024/03/25 05:14:13;;;;;;;1999.90;999.90;;;;;;;3.27;100.00;100667.50;10499509;28;20046;-67
2024/03/25 05:19:15;;;;;;;1999.90;999.90;;;;;;;3.33;100.00;100662.16;10482392;28;20059;-67
2024/03/25 05:24:16;;;;;;;1999.90;999.90;;;;;;;3.33;100.00;100678.53;10499300;28;20166;-67
2024/03/25 05:29:17;;;;;;;1999.90;999.90;;;;;;;3.29;100.00;100681.25;10499256;28;20048;-67
2024/03/25 05:34:19;;;;;;;1999.90;999.90;;;;;;;3.25;100.00;100693.44;10498812;28;20074;-67
2024/03/25 05:39:20;;;;;;;1999.90;999.90;;;;;;;3.24;100.00;100691.72;10497206;28;20487;-67
2024/03/25 05:44:22;;;;;;;1999.90;999.90;;;;;;;3.33;100.00;100706.16;10481698;28;20057;-67
2024/03/25 05:49:23;;;;;;;1999.90;999.90;;;;;;;3.20;100.00;100708.22;10481021;28;20048;-67
2024/03/25 05:54:24;;;;;;;1999.90;999.90;;;;;;;3.29;100.00;100702.78;10480752;28;20497;-67
2024/03/25 05:59:26;;;;;;;1999.90;999.90;;;;;;;3.29;100.00;100700.19;10497331;28;20071;-67
2024/03/25 06:04:27;;;;;;;1999.90;999.90;;;;;;;3.42;100.00;100694.69;10497678;28;20059;-67
2024/03/25 06:09:29;;;;;;;1999.90;999.90;;;;;;;3.42;100.00;100698.09;10480794;28;20060;-67
2024/03/25 06:14:30;;;;;;;1999.90;999.90;;;;;;;3.65;100.00;100687.06;10497801;28;20055;-67
2024/03/25 06:19:31;;;;;;;1999.90;999.90;;;;;;;3.77;100.00;100677.25;10481105;28;20052;-67
2024/03/25 06:24:33;;;;;;;1999.90;999.90;;;;;;;3.58;100.00;100674.34;10497254;28;20048;-67
2024/03/25 06:29:35;;;;;;;1999.90;999.90;;;;;;;3.86;100.00;100679.53;10496992;28;20063;-67
2024/03/25 06:34:36;;;;;;;1999.90;999.90;;;;;;;3.97;100.00;100679.19;10479483;28;20052;-67
2024/03/25 06:39:38;;;;;;;1999.90;999.90;;;;;;;4.24;100.00;100678.31;10496003;28;20053;-67
2024/03/25 06:44:39;;;;;;;1999.90;999.90;;;;;;;4.21;100.00;100675.81;10479781;28;20094;-67
2024/03/25 06:49:41;;;;;;;1999.90;999.90;;;;;;;4.31;100.00;100671.16;10496378;28;20053;-67
2024/03/25 06:54:42;;;;;;;1999.90;999.90;;;;;;;4.60;100.00;100669.34;10495768;28;20532;-67
2024/03/25 06:59:43;;;;;;;1999.90;999.90;;;;;;;4.74;100.00;100666.25;10496412;28;20477;-67
2024/03/25 07:04:45;;;;;;;1999.90;999.90;;;;;;;5.22;100.00;100667.97;10496087;28;20052;-67
2024/03/25 07:09:46;;;;;;;1999.90;999.90;;;;;;;5.67;100.00;100668.91;10496343;28;20045;-67
2024/03/25 07:14:47;;;;;;;1999.90;999.90;;;;;;;5.92;100.00;100667.00;10496417;28;20060;-67
2024/03/25 07:19:49;;;;;;;1999.90;999.90;;;;;;;6.04;100.00;100664.88;10496198;28;20056;-67
2024/03/25 07:24:55;;;;;;;1999.90;999.90;;;;;;;6.55;100.00;100662.75;10478117;28;20378;-67
2024/03/25 07:29:56;;;;;;;1999.90;999.90;;;;;;;6.51;100.00;100652.47;10478198;28;20477;-67
2024/03/25 07:34:58;;;;;;;1999.90;999.90;;;;;;;6.83;100.00;100657.22;10495621;28;20048;-70
2024/03/25 07:39:59;;;;;;;1999.90;999.90;;;;;;;7.22;100.00;100669.34;10495544;28;20068;-67
2024/03/25 07:45:01;;;;;;;1999.90;999.90;;;;;;;7.65;100.00;100656.94;10477859;28;20390;-67
2024/03/25 07:50:03;;;;;;;1999.90;999.90;;;;;;;8.09;97.56;100658.31;10495249;28;20048;-67
2024/03/25 07:55:04;;;;;;;1999.90;999.90;;;;;;;8.31;91.66;100658.94;10477744;28;20497;-67
2024/03/25 08:00:08;;;;;;;1999.90;999.90;;;;;;;8.59;88.51;100644.53;10495351;28;20059;-67
2024/03/25 08:05:10;;;;;;;1999.90;999.90;;;;;;;9.09;87.75;100648.00;10482782;28;20049;-67
2024/03/25 08:10:11;;;;;;;1999.90;999.90;;;;;;;9.13;85.57;100654.75;10485438;28;20531;-67
2024/03/25 08:15:13;;;;;;;1999.90;999.90;;;;;;;9.27;85.38;100651.41;10484851;28;20505;-67
2024/03/25 08:20:14;;;;;;;1999.90;999.90;;;;;;;9.01;85.77;100665.84;10484692;28;20049;-67
2024/03/25 08:25:16;;;;;;;1999.90;999.90;;;;;;;9.66;84.31;100658.81;10501204;28;20082;-68
2024/03/25 08:30:17;;;;;;;1999.90;999.90;;;;;;;8.55;84.48;100666.47;10501500;28;20044;-67
2024/03/25 08:35:19;;;;;;;1999.90;999.90;;;;;;;9.38;84.58;100664.72;10500754;28;20421;-67
2024/03/25 08:40:20;;;;;;;1999.90;999.90;;;;;;;9.91;82.79;100669.66;10500826;28;20323;-64
2024/03/25 08:45:21;;;;;;;1999.90;999.90;;;;;;;9.71;83.21;100674.25;10499938;28;20049;-64
2024/03/25 08:50:23;;;;;;;1999.90;999.90;;;;;;;8.84;83.83;100664.13;10500981;28;20052;-64
2024/03/25 08:55:25;;;;;;;1999.90;999.90;;;;;;;9.40;85.43;100667.25;10483423;28;20052;-64
2024/03/25 09:00:27;;;;;;;1999.90;999.90;;;;;;;10.35;82.53;100664.50;10500338;28;20056;-64
2024/03/25 09:05:28;;;;;;;1999.90;999.90;;;;;;;11.90;80.88;100654.09;10483211;28;20057;-64
2024/03/25 09:15:50;;;;;;;1999.90;999.90;;;;;;;10.94;75.37;100642.69;10483199;28;20056;-64
2024/03/25 09:20:51;;;;;;;1999.90;999.90;;;;;;;10.44;77.06;100638.72;10499639;28;20079;-64
2024/03/25 09:25:55;;;;;;;1999.90;999.90;;;;;;;11.11;73.72;100632.03;10482091;28;20056;-64
2024/03/25 09:30:57;;;;;;;1999.90;999.90;;;;;;;12.18;70.96;100630.47;10482288;28;20060;-64
2024/03/25 09:35:58;;;;;;;1999.90;999.90;;;;;;;11.29;73.48;100639.66;10498596;28;20061;-64
2024/03/25 09:40:59;;;;;;;1999.90;999.90;;;;;;;11.31;71.56;100630.78;10482185;28;20041;-64
2024/03/25 09:46:01;;;;;;;1999.90;999.90;;;;;;;12.70;67.51;100620.84;10481690;28;20126;-65
2024/03/25 09:51:04;;;;;;;1999.90;999.90;;;;;;;12.99;67.83;100618.81;10498733;28;20049;-65
2024/03/25 09:56:06;;;;;;;1999.90;999.90;;;;;;;14.77;63.23;100596.09;10481211;28;20501;-65
2024/03/25 10:01:07;;;;;;;1999.90;999.90;;;;;;;13.76;63.63;100602.78;10497216;28;20055;-65
2024/03/25 10:06:09;;;;;;;1999.90;999.90;;;;;;;16.09;60.96;100597.81;10481292;28;20504;-66
2024/03/25 10:11:11;;;;;;;1999.90;999.90;;;;;;;13.65;64.80;100610.63;10480579;28;20048;-65
2024/03/25 10:16:13;;;;;;;1999.90;999.90;;;;;;;12.27;69.90;100599.22;10479925;28;20490;-65
2024/03/25 10:21:14;;;;;;;1999.90;999.90;;;;;;;13.49;61.74;100577.56;10497063;28;20051;-65
2024/03/25 10:26:35;;;;;;;1999.90;999.90;;;;;;;14.44;60.83;100566.97;10463776;28;20102;-65
2024/03/25 10:31:36;;;;;;;1999.90;999.90;;;;;;;13.59;60.80;100571.66;10479513;28;20397;-66
2024/03/25 10:36:37;;;;;;;1999.90;999.90;;;;;;;13.72;59.79;100565.34;10480168;28;20067;-66
2024/03/25 10:41:40;;;;;;;1999.90;999.90;;;;;;;12.23;64.30;100560.13;10480233;28;20040;-65
2024/03/25 10:46:41;;;;;;;1999.90;999.90;;;;;;;14.12;61.60;100551.81;10479948;28;20048;-65
2024/03/25 10:51:45;;;;;;;1999.90;999.90;;;;;;;14.39;59.43;100542.78;10479575;28;20126;-66
2024/03/25 10:56:51;;;;;;;1999.90;999.90;;;;;;;14.83;56.73;100538.47;10495877;28;20049;-66
2024/03/25 11:01:53;;;;;;;1999.90;999.90;;;;;;;13.60;57.96;100526.81;10478966;28;20382;-66
2024/03/25 11:06:54;;;;;;;1999.90;999.90;;;;;;;13.63;58.77;100536.25;10478692;28;20481;-66
2024/03/25 11:11:56;;;;;;;1999.90;999.90;;;;;;;13.41;60.29;100524.69;10495851;28;20048;-66
2024/03/25 11:16:57;;;;;;;1999.90;999.90;;;;;;;13.32;62.82;100533.28;10496138;28;20056;-66
2024/03/25 11:22:10;;;;;;;1999.90;999.90;;;;;;;15.00;61.58;100523.94;10479268;28;20049;-66
2024/03/25 11:27:11;;;;;;;1999.90;999.90;;;;;;;14.70;57.62;100506.13;10479149;28;20057;-66
2024/03/25 11:32:14;;;;;;;1999.90;999.90;;;;;;;14.81;57.34;100510.53;10495600;28;20041;-66
2024/03/25 11:37:15;;;;;;;1999.90;999.90;;;;;;;15.78;54.83;100489.47;10496024;28;20059;-66
2024/03/25 11:42:17;;;;;;;1999.90;999.90;;;;;;;14.81;55.00;100500.00;10503568;28;20053;-66
2024/03/25 11:47:18;;;;;;;1999.90;999.90;;;;;;;15.72;57.10;100488.16;10486583;28;20053;-66
2024/03/25 11:52:19;;;;;;;1999.90;999.90;;;;;;;15.29;58.52;100485.63;10485945;28;20059;-66
2024/03/25 11:57:22;;;;;;;1999.90;999.90;;;;;;;14.00;57.72;100483.47;10503147;28;20060;-66
2024/03/25 12:02:23;;;;;;;1999.90;999.90;;;;;;;18.71;50.90;100455.16;10485134;28;20048;-67
2024/03/25 12:07:25;;;;;;;1999.90;999.90;;;;;;;18.01;48.91;100437.09;10468950;28;20056;-67
2024/03/25 12:12:27;;;;;;;1999.90;999.90;;;;;;;16.40;49.86;100441.97;10484924;28;20052;-66
2024/03/25 12:17:28;;;;;;;1999.90;999.90;;;;;;;18.14;51.23;100436.75;10502080;28;20386;-66
2024/03/25 12:22:32;;;;;;;1999.90;999.90;;;;;;;16.45;49.90;100426.53;10484668;28;20150;-66
2024/03/25 12:27:35;;;;;;;1999.90;999.90;;;;;;;14.83;50.79;100427.78;10484549;28;20057;-66
2024/03/25 12:32:44;;;;;;;1999.90;999.90;;;;;;;15.59;50.60;100416.28;10484935;28;20053;-66
2024/03/25 12:37:46;;;;;;;1999.90;999.90;;;;;;;13.72;51.14;100404.03;10484322;28;20063;-66
2024/03/25 12:42:52;;;;;;;1999.90;999.90;;;;;;;16.45;46.68;100389.53;10500592;28;20113;-66
2024/03/25 12:47:54;;;;;;;1999.90;999.90;;;;;;;18.38;45.14;100372.63;10484233;28;20059;-66
2024/03/25 12:52:55;;;;;;;1999.90;999.90;;;;;;;18.99;43.65;100347.19;10500122;28;20068;-66
2024/03/25 12:57:56;;;;;;;1999.90;999.90;;;;;;;19.01;41.87;100341.75;10501030;28;20063;-67
2024/03/25 13:02:58;;;;;;;1999.90;999.90;;;;;;;19.80;43.39;100348.75;10483970;28;20055;-64
2024/03/25 13:07:59;;;;;;;1999.90;999.90;;;;;;;17.80;43.43;100347.22;10483788;28;20136;-64
2024/03/25 13:13:02;;;;;;;1999.90;999.90;;;;;;;15.91;45.03;100363.38;10483235;28;20048;-64
2024/03/25 13:18:03;;;;;;;1999.90;999.90;;;;;;;15.36;49.09;100362.81;10499807;28;20056;-64
2024/03/25 13:23:05;;;;;;;1999.90;999.90;;;;;;;18.29;41.03;100325.81;10499462;28;20048;-64
2024/03/25 13:28:06;;;;;;;1999.90;999.90;;;;;;;19.26;41.05;100295.81;10499869;28;20102;-64
2024/03/25 13:33:07;;;;;;;1999.90;999.90;;;;;;;20.27;40.80;100299.56;10498916;28;20041;-64
2024/03/25 13:38:09;;;;;;;1999.90;999.90;;;;;;;19.71;43.24;100304.50;10497937;28;20507;-64
2024/03/25 13:43:10;;;;;;;1999.90;999.90;;;;;;;19.73;41.11;100288.41;10481898;28;20053;-64
2024/03/25 13:48:12;;;;;;;1999.90;999.90;;;;;;;16.67;44.57;100291.50;10497949;28;20082;-64
2024/03/25 13:53:13;;;;;;;1999.90;999.90;;;;;;;14.20;47.81;100309.00;10497109;28;20048;-64
2024/03/25 13:58:14;;;;;;;1999.90;999.90;;;;;;;18.26;44.62;100289.03;10498018;28;20060;-64
2024/03/25 14:03:17;;;;;;;1999.90;999.90;;;;;;;18.93;41.80;100270.91;10463259;28;20045;-64
2024/03/25 14:08:18;;;;;;;1999.90;999.90;;;;;;;21.30;42.23;100259.13;10497759;28;20052;-64
2024/03/25 14:13:19;;;;;;;1999.90;999.90;;;;;;;21.25;41.58;100245.50;10496672;28;20056;-64
2024/03/25 14:18:21;;;;;;;1999.90;999.90;;;;;;;22.39;40.98;100237.09;10498048;28;20053;-64
2024/03/25 14:23:22;;;;;;;1999.90;999.90;;;;;;;20.07;40.34;100237.06;10495539;28;20052;-64
2024/03/25 14:28:24;;;;;;;1999.90;999.90;;;;;;;21.33;42.29;100220.69;10474881;28;20460;-64
2024/03/25 14:33:25;;;;;;;1999.90;999.90;;;;;;;19.63;39.07;100214.19;10479346;28;20407;-64
2024/03/25 14:38:26;;;;;;;1999.90;999.90;;;;;;;20.83;39.46;100195.19;10480525;28;20125;-64
2024/03/25 14:43:28;;;;;;;1999.90;999.90;;;;;;;22.68;37.84;100187.50;10479953;28;20045;-64
2024/03/25 14:48:29;;;;;;;1999.90;999.90;;;;;;;18.61;39.81;100174.22;10480504;28;20114;-64
2024/03/25 14:53:30;;;;;;;1999.90;999.90;;;;;;;20.64;39.36;100172.47;10463027;28;20056;-64
2024/03/25 14:58:32;;;;;;;1999.90;999.90;;;;;;;20.09;37.38;100148.25;10479580;28;20118;-64
2024/03/25 15:03:33;;;;;;;1999.90;999.90;;;;;;;20.54;34.94;100138.91;10480107;28;20060;-64
2024/03/25 15:08:35;;;;;;;1999.90;999.90;;;;;;;21.84;33.41;100113.75;10500277;22;20044;-63
2024/03/25 15:13:36;;;;;;;1999.90;999.90;;;;;;;21.31;36.06;100122.34;10524664;28;20048;-63
2024/03/25 15:18:38;;;;;;;1999.90;999.90;;;;;;;21.00;35.90;100121.47;10529029;28;20122;-63
2024/03/25 15:23:40;;;;;;;1999.90;999.90;;;;;;;20.06;41.98;100127.31;10529449;28;20056;-63
2024/03/25 15:28:41;;;;;;;1999.90;999.90;;;;;;;20.30;41.40;100097.22;10529119;28;20048;-63
2024/03/25 15:33:42;;;;;;;1999.90;999.90;;;;;;;19.56;40.39;100128.22;10529564;28;20044;-63
2024/03/25 15:38:44;;;;;;;1999.90;999.90;;;;;;;20.56;38.04;100109.44;10528188;28;20412;-62
2024/03/25 15:43:46;;;;;;;1999.90;999.90;;;;;;;17.26;41.47;100117.69;10528935;28;20059;-62
2024/03/25 15:48:47;;;;;;;1999.90;999.90;;;;;;;17.57;40.81;100114.69;10528220;28;20077;-62
2024/03/25 15:53:48;;;;;;;1999.90;999.90;;;;;;;18.93;40.76;100119.72;10511655;28;20060;-63
2024/03/25 15:58:50;;;;;;;1999.90;999.90;;;;;;;16.97;42.43;100109.88;10528469;28;20059;-65
2024/03/25 16:03:51;;;;;;;1999.90;999.90;;;;;;;17.59;41.70;100102.13;10527518;28;20047;-65
2024/03/25 16:08:53;;;;;;;1999.90;999.90;;;;;;;18.49;40.13;100090.59;10510685;28;20105;-65
2024/03/25 16:13:55;;;;;;;1999.90;999.90;;;;;;;19.93;37.79;100076.50;10527091;28;20044;-65
2024/03/25 16:18:57;;;;;;;1999.90;999.90;;;;;;;19.58;39.14;100071.28;10527555;28;20074;-65
2024/03/25 16:23:58;;;;;;;1999.90;999.90;;;;;;;20.46;38.26;100059.16;10509582;28;20048;-65
2024/03/25 16:29:00;;;;;;;1999.90;999.90;;;;;;;20.06;38.08;100052.09;10526829;28;20055;-65
2024/03/25 16:34:01;;;;;;;1999.90;999.90;;;;;;;20.53;37.88;100054.81;10509342;28;20044;-65
2024/03/25 16:39:03;;;;;;;1999.90;999.90;;;;;;;17.92;41.09;100073.34;10509706;28;20048;-65
2024/03/25 16:44:05;;;;;;;1999.90;999.90;;;;;;;16.09;45.91;100080.22;10525677;28;20048;-65
2024/03/25 16:49:07;;;;;;;1999.90;999.90;;;;;;;14.90;46.68;100087.28;10509274;28;20064;-65
2024/03/25 16:54:09;;;;;;;1999.90;999.90;;;;;;;13.89;51.09;100098.31;10508602;28;20102;-65
2024/03/25 16:59:10;;;;;;;1999.90;999.90;;;;;;;13.44;50.87;100085.31;10526032;28;20060;-65
2024/03/25 17:04:11;;;;;;;1999.90;999.90;;;;;;;12.31;55.57;100095.84;10525268;28;20056;-65
2024/03/25 17:09:14;;;;;;;1999.90;999.90;;;;;;;12.14;54.46;100073.50;10524869;28;20055;-65
2024/03/25 17:14:15;;;;;;;1999.90;999.90;;;;;;;11.65;54.35;100070.09;10524917;28;20041;-65
2024/03/25 17:19:17;;;;;;;1999.90;999.90;;;;;;;11.46;55.61;100069.75;10525431;28;20059;-65
2024/03/25 17:24:18;;;;;;;1999.90;999.90;;;;;;;11.11;57.36;100067.88;10507282;28;20048;-65
2024/03/25 17:29:20;;;;;;;1999.90;999.90;;;;;;;10.26;61.05;100080.75;10524589;28;20068;-64
2024/03/25 17:34:21;;;;;;;1999.90;999.90;;;;;;;10.36;61.65;100076.59;10523709;28;20101;-64
2024/03/25 17:39:23;;;;;;;1999.90;999.90;;;;;;;9.98;63.54;100074.72;10523381;28;20405;-64
2024/03/25 17:44:24;;;;;;;1999.90;999.90;;;;;;;9.67;65.08;100066.28;10523821;28;20121;-64
2024/03/25 17:49:28;;;;;;;1999.90;999.90;;;;;;;9.41;67.71;100054.91;10522836;28;20497;-64
2024/03/25 17:54:29;;;;;;;1999.90;999.90;;;;;;;9.22;67.13;100052.63;10505921;28;20105;-64
2024/03/25 17:59:31;;;;;;;1999.90;999.90;;;;;;;9.06;68.10;100045.78;10522774;28;20044;-64
2024/03/25 18:04:32;;;;;;;1999.90;999.90;;;;;;;8.74;70.26;100048.63;10522678;28;20052;-64
2024/03/25 18:09:34;;;;;;;1999.90;999.90;;;;;;;8.43;72.04;100054.03;10522566;28;20397;-64
2024/03/25 18:14:35;;;;;;;1999.90;999.90;;;;;;;8.16;75.25;100039.06;10522090;28;20484;-64
2024/03/25 18:19:36;;;;;;;1999.90;999.90;;;;;;;8.02;75.09;100032.06;10522560;28;20051;-64
2024/03/25 18:24:38;;;;;;;1999.90;999.90;;;;;;;7.87;75.47;100030.34;10505587;28;20051;-64
2024/03/25 18:29:39;;;;;;;1999.90;999.90;;;;;;;7.73;76.55;100025.94;10522314;28;20060;-64
2024/03/25 18:34:41;;;;;;;1999.90;999.90;;;;;;;7.44;77.79;100026.66;10521498;28;20066;-64
2024/03/25 18:39:42;;;;;;;1999.90;999.90;;;;;;;7.69;77.20;100022.66;10520723;28;20480;-64
2024/03/25 18:44:43;;;;;;;1999.90;999.90;;;;;;;7.42;77.75;100014.69;10521322;28;20055;-64
2024/03/25 18:49:46;;;;;;;1999.90;999.90;;;;;;;7.27;78.12;100005.97;10520572;28;20138;-64
2024/03/25 18:54:47;;;;;;;1999.90;999.90;;;;;;;7.13;80.65;100004.13;10520829;28;20075;-64
2024/03/25 18:59:49;;;;;;;1999.90;999.90;;;;;;;6.99;81.32;100007.50;10521068;28;20056;-64
2024/03/25 19:04:50;;;;;;;1999.90;999.90;;;;;;;6.94;81.40;99998.25;10520875;28;20063;-64
2024/03/25 19:09:53;;;;;;;1999.90;999.90;;;;;;;6.74;81.41;99992.41;10520691;28;20492;-64
2024/03/25 19:14:54;;;;;;;1999.90;999.90;;;;;;;6.67;81.97;99991.03;10520548;28;20052;-64
2024/03/25 19:19:56;;;;;;;1999.90;999.90;;;;;;;6.60;83.83;99994.88;10520935;28;20064;-64
2024/03/25 19:24:57;;;;;;;1999.90;999.90;;;;;;;6.45;84.62;99994.78;10520751;28;20048;-64
2024/03/25 19:29:59;;;;;;;1999.90;999.90;;;;;;;6.42;85.57;99999.31;10520856;28;20071;-64
2024/03/25 19:35:00;;;;;;;1999.90;999.90;;;;;;;6.37;85.80;100002.16;10520074;28;20044;-64
2024/03/25 19:40:02;;;;;;;1999.90;999.90;;;;;;;6.40;86.52;99991.56;10520046;28;20058;-64
2024/03/25 19:45:04;;;;;;;1999.90;999.90;;;;;;;6.50;87.31;99990.16;10520061;28;20105;-64
2024/03/25 19:50:06;;;;;;;1999.90;999.90;;;;;;;6.19;87.56;99998.75;10520107;28;20071;-64
2024/03/25 19:55:07;;;;;;;1999.90;999.90;;;;;;;6.24;86.68;100003.72;10503078;28;20489;-64
2024/03/25 20:00:10;;;;;;;1999.90;999.90;;;;;;;6.27;85.61;99994.00;10523397;28;20044;-64
2024/03/25 20:05:11;;;;;;;1999.90;999.90;;;;;;;6.31;87.62;99992.91;10527444;28;20113;-64
2024/03/25 20:10:13;;;;;;;1999.90;999.90;;;;;;;6.34;86.82;99986.72;10526902;28;20109;-64
2024/03/25 20:15:14;;;;;;;1999.90;999.90;;;;;;;6.26;87.36;99976.72;10526608;28;20401;-64
2024/03/25 20:20:16;;;;;;;1999.90;999.90;;;;;;;5.99;87.94;99991.16;10526341;28;20127;-64
2024/03/25 20:25:17;;;;;;;1999.90;999.90;;;;;;;6.08;90.25;99973.31;10526137;28;20488;-64
2024/03/25 20:30:18;;;;;;;1999.90;999.90;;;;;;;6.08;88.01;99965.50;10525969;28;20044;-64
2024/03/25 20:35:20;;;;;;;1999.90;999.90;;;;;;;5.70;90.70;99972.63;10526705;28;20055;-64
2024/03/25 20:40:21;;;;;;;1999.90;999.90;;;;;;;5.73;91.38;99965.56;10526176;28;20052;-63
2024/03/25 20:45:23;;;;;;;1999.90;999.90;;;;;;;5.63;90.37;99969.53;10526071;28;20052;-63
2024/03/25 20:50:24;;;;;;;1999.90;999.90;;;;;;;5.58;90.90;99969.75;10525283;28;20056;-63
2024/03/25 20:55:26;;;;;;;1999.90;999.90;;;;;;;5.68;90.46;99962.34;10524786;28;20064;-64
2024/03/25 21:00:27;;;;;;;1999.90;999.90;;;;;;;5.63;91.00;99958.28;10525385;28;20052;-64
2024/03/25 21:05:28;;;;;;;1999.90;999.90;;;;;;;5.52;91.65;99951.88;10525240;28;20051;-63
2024/03/25 21:10:30;;;;;;;1999.90;999.90;;;;;;;5.33;90.95;99951.09;10508180;28;20105;-63
2024/03/25 21:15:31;;;;;;;1999.90;999.90;;;;;;;5.49;90.36;99946.81;10525404;28;20056;-63
2024/03/25 21:20:33;;;;;;;1999.90;999.90;;;;;;;5.56;89.38;99935.25;10524960;28;20052;-63
2024/03/25 21:25:34;;;;;;;1999.90;999.90;;;;;;;5.25;91.07;99929.88;10524465;28;20052;-63
2024/03/25 21:30:35;;;;;;;1999.90;999.90;;;;;;;5.17;90.99;99925.06;10507529;28;20051;-63
2024/03/25 21:35:37;;;;;;;1999.90;999.90;;;;;;;5.44;89.57;99925.44;10507040;28;20381;-63
2024/03/25 21:40:38;;;;;;;1999.90;999.90;;;;;;;5.11;89.65;99926.22;10507032;28;20412;-63
2024/03/25 21:45:39;;;;;;;1999.90;999.90;;;;;;;5.09;89.90;99922.81;10523160;28;20059;-63
2024/03/25 21:50:41;;;;;;;1999.90;999.90;;;;;;;5.05;93.25;99926.50;10523906;28;20052;-63
2024/03/25 21:55:43;;;;;;;1999.90;999.90;;;;;;;4.95;91.58;99914.88;10523358;28;20408;-63
2024/03/25 22:00:44;;;;;;;1999.90;999.90;;;;;;;5.11;90.25;99908.06;10522020;28;20310;-63